aviador You're here:

VEPT Decoded Metar

PATINA in INDIA
Report Time2017-06-25 20:30:00
UTC Time2017-06-25 20:43:15
Flight Rules ifr IFR
WindCalm
Visibility2500 m
Phenomena:Haze
Clouds:Few 020 Hf
Scattered 100 Hf
Expected CloudBase > 1,600 ft AGL from Temp-Dew spread
CeilingNone
Temp29°C (ISA +14)
Dew Point25°C (79% RH)
Heat Index34.5°C
QNH1000 hPa
Density Alt2,703 ft
Elevation197 ft
Report Wrong Elevation
Raw Report
METAR VEPT 252030Z 00000KT 2500 HZ FEW020 SCT100 29/25 Q1000 NOSIG=

Extra information for VEPT:More info

Metar Taf Metar & Taf Last 4 Metars F.Rules Stats Wind Profile Meteogram Temp Stats Airport Information Weather charts Add Link Nearby VenuesMetar ALERT Operation Metar Decoded Social comments